createdAt,value
2018-01-25T00:01:38.780Z,9.23
2018-01-25T00:04:06.377Z,8.17
2018-01-25T00:06:33.930Z,8.50
2018-01-25T00:09:02.258Z,7.30
2018-01-25T00:11:29.787Z,6.47
2018-01-25T00:13:57.323Z,7.60
2018-01-25T00:16:24.892Z,7.20
2018-01-25T00:18:52.427Z,6.73
2018-01-25T00:21:20.091Z,6.18
2018-01-25T00:23:48.309Z,6.50
2018-01-25T00:26:16.378Z,7.17
2018-01-25T00:28:43.921Z,7.23
2018-01-25T00:31:13.002Z,6.68
2018-01-25T00:33:40.544Z,7.63
2018-01-25T00:36:08.092Z,7.40
2018-01-25T00:38:35.660Z,7.47
2018-01-25T00:41:03.199Z,6.20
2018-01-25T00:43:30.726Z,6.67
2018-01-25T00:45:58.483Z,6.07
2018-01-25T00:48:26.088Z,6.47
2018-01-25T00:50:53.671Z,5.70
2018-01-25T00:53:21.231Z,4.60
2018-01-25T00:55:48.795Z,5.53
2018-01-25T00:58:16.614Z,5.20
2018-01-25T01:00:44.176Z,5.10
2018-01-25T01:03:11.715Z,5.33
2018-01-25T01:05:40.011Z,4.63
2018-01-25T01:08:07.876Z,4.43
2018-01-25T01:10:35.407Z,4.37
2018-01-25T01:13:02.944Z,4.33
2018-01-25T01:15:30.499Z,4.60
2018-01-25T01:17:58.035Z,4.57
2018-01-25T01:20:25.574Z,6.10
2018-01-25T01:22:53.136Z,4.43
2018-01-25T01:25:20.680Z,4.20
2018-01-25T01:27:48.210Z,3.90
2018-01-25T01:30:17.053Z,4.50
2018-01-25T01:32:45.815Z,4.70
2018-01-25T01:35:14.594Z,4.22
2018-01-25T01:37:42.160Z,4.43
2018-01-25T01:40:10.460Z,3.97
2018-01-25T01:42:38.004Z,3.80
2018-01-25T01:45:05.563Z,4.15
2018-01-25T01:47:33.869Z,4.20
2018-01-25T01:50:01.408Z,4.07
2018-01-25T01:52:29.019Z,3.87
2018-01-25T01:54:56.558Z,4.33
2018-01-25T01:57:24.092Z,4.30
2018-01-25T01:59:51.664Z,4.73
2018-01-25T02:02:19.199Z,4.20
2018-01-25T02:04:46.730Z,4.00
2018-01-25T02:07:27.587Z,4.35
2018-01-25T02:13:02.243Z,3.50
2018-01-25T02:15:29.770Z,3.40
2018-01-25T02:17:57.299Z,3.60
2018-01-25T02:20:24.867Z,3.37
2018-01-25T02:22:52.399Z,3.65
2018-01-25T02:25:19.919Z,3.37
2018-01-25T02:27:47.471Z,3.53
2018-01-25T02:30:16.438Z,3.12
2018-01-25T02:32:43.967Z,3.40
2018-01-25T02:35:12.106Z,3.33
2018-01-25T02:37:39.634Z,3.17
2018-01-25T02:40:07.159Z,3.03
2018-01-25T02:42:34.722Z,3.43
2018-01-25T02:45:02.254Z,3.10
2018-01-25T02:47:29.786Z,3.53
2018-01-25T02:49:57.345Z,3.57
2018-01-25T02:52:24.907Z,3.73
2018-01-25T02:54:53.230Z,3.17
2018-01-25T02:57:21.483Z,3.20
2018-01-25T02:59:49.020Z,2.93
2018-01-25T03:02:16.552Z,3.73
2018-01-25T03:04:44.107Z,3.20
2018-01-25T03:07:12.403Z,3.27
2018-01-25T03:09:39.935Z,3.30
2018-01-25T03:12:08.295Z,3.50
2018-01-25T03:14:35.823Z,3.60
2018-01-25T03:17:03.374Z,2.60
2018-01-25T03:19:31.474Z,2.77
2018-01-25T03:21:59.000Z,3.23
2018-01-25T03:24:26.527Z,3.57
2018-01-25T03:26:54.843Z,3.93
2018-01-25T03:29:22.376Z,3.20
2018-01-25T03:31:50.662Z,3.50
2018-01-25T03:34:18.224Z,3.20
2018-01-25T03:36:46.783Z,3.50
2018-01-25T03:39:15.474Z,3.20
2018-01-25T03:41:44.012Z,3.40
2018-01-25T03:44:11.539Z,2.78
2018-01-25T03:46:39.131Z,3.00
2018-01-25T03:49:06.727Z,2.93
2018-01-25T03:51:34.264Z,2.73
2018-01-25T03:54:01.795Z,2.80
2018-01-25T03:56:29.351Z,3.10
2018-01-25T03:58:56.879Z,2.83
2018-01-25T04:01:24.415Z,2.30
2018-01-25T04:03:52.266Z,2.60
2018-01-25T04:06:19.795Z,2.67
2018-01-25T04:08:47.327Z,2.60
2018-01-25T04:11:16.403Z,2.90
2018-01-25T04:13:43.935Z,2.53
2018-01-25T04:16:11.511Z,2.50
2018-01-25T04:18:39.066Z,2.70
2018-01-25T04:21:06.595Z,2.77
2018-01-25T04:23:34.132Z,2.40
2018-01-25T04:26:01.995Z,2.73
2018-01-25T04:28:29.540Z,2.90
2018-01-25T04:30:57.843Z,2.80
2018-01-25T04:33:25.402Z,2.70
2018-01-25T04:35:52.922Z,2.50
2018-01-25T04:38:21.748Z,2.58
2018-01-25T04:40:49.343Z,2.23
2018-01-25T04:43:16.867Z,3.17
2018-01-25T04:45:44.407Z,5.77
2018-01-25T04:48:12.336Z,4.40
2018-01-25T04:50:39.868Z,7.10
2018-01-25T04:53:07.399Z,5.40
2018-01-25T04:55:34.966Z,10.20
2018-01-25T04:58:02.508Z,11.80
2018-01-25T05:00:30.816Z,7.75
2018-01-25T05:02:58.380Z,8.50
2018-01-25T05:05:25.967Z,5.73
2018-01-25T05:07:53.495Z,4.55
2018-01-25T05:10:21.291Z,4.30
2018-01-25T05:12:48.822Z,4.20
2018-01-25T05:15:16.435Z,4.62
2018-01-25T05:17:45.400Z,4.60
2018-01-25T05:20:24.523Z,4.95
2018-01-25T05:24:37.071Z,3.90
2018-01-25T05:27:04.604Z,4.10
2018-01-25T05:29:32.143Z,3.27
2018-01-25T05:31:59.756Z,3.60
2018-01-25T05:34:27.291Z,2.80
2018-01-25T05:36:54.823Z,3.43
2018-01-25T05:39:23.122Z,3.77
2018-01-25T05:41:50.744Z,3.50
2018-01-25T05:44:19.048Z,3.50
2018-01-25T05:46:46.604Z,3.20
2018-01-25T05:49:26.696Z,3.50
2018-01-25T06:00:39.443Z,4.03
2018-01-25T06:03:06.966Z,5.50
2018-01-25T06:05:35.258Z,4.37
2018-01-25T06:08:02.808Z,4.20
2018-01-25T06:10:30.411Z,4.57
2018-01-25T06:12:57.966Z,7.87
2018-01-25T06:15:25.531Z,4.70
2018-01-25T06:17:53.067Z,3.80
2018-01-25T06:20:20.683Z,4.20
2018-01-25T06:22:48.838Z,3.77
2018-01-25T06:25:16.679Z,4.65
2018-01-25T06:27:44.202Z,3.93
2018-01-25T06:30:12.515Z,3.97
2018-01-25T06:32:40.050Z,3.70
2018-01-25T06:35:07.579Z,3.83
2018-01-25T06:37:35.159Z,3.07
2018-01-25T06:40:04.171Z,3.37
2018-01-25T06:42:31.700Z,4.00
2018-01-25T06:44:59.474Z,3.00
2018-01-25T06:47:27.790Z,3.03
2018-01-25T06:49:55.318Z,2.47
2018-01-25T06:52:22.891Z,3.30
2018-01-25T06:54:50.426Z,3.22
2018-01-25T06:57:18.718Z,3.20
2018-01-25T06:59:47.073Z,3.40
2018-01-25T07:02:16.451Z,3.45
2018-01-25T07:04:43.987Z,3.60
2018-01-25T07:07:12.028Z,2.90
2018-01-25T07:09:39.567Z,3.27
2018-01-25T07:12:07.103Z,2.60
2018-01-25T07:14:34.684Z,2.77
2018-01-25T07:17:02.215Z,3.40
2018-01-25T07:19:29.888Z,3.33
2018-01-25T07:21:57.444Z,3.15
2018-01-25T07:24:24.973Z,4.13
2018-01-25T07:26:52.499Z,3.80
2018-01-25T07:29:20.123Z,3.03
2018-01-25T07:31:47.647Z,3.20
2018-01-25T07:34:16.475Z,2.92
2018-01-25T07:36:44.023Z,3.97
2018-01-25T07:39:11.561Z,4.13
2018-01-25T07:41:39.703Z,3.20
2018-01-25T07:44:08.024Z,3.40
2018-01-25T07:46:35.563Z,8.60
2018-01-25T07:49:03.144Z,5.70
2018-01-25T07:51:31.432Z,3.72
2018-01-25T07:53:58.954Z,3.40
2018-01-25T07:56:26.488Z,3.70
2018-01-25T07:58:54.046Z,4.03
2018-01-25T08:01:21.738Z,4.57
2018-01-25T08:03:49.271Z,4.60
2018-01-25T08:06:17.167Z,4.10
2018-01-25T08:08:44.700Z,4.60
2018-01-25T08:11:12.272Z,3.60
2018-01-25T08:13:40.662Z,3.33
2018-01-25T08:16:13.908Z,3.97
2018-01-25T08:18:41.470Z,5.07
2018-01-25T08:21:09.014Z,3.87
2018-01-25T08:23:38.056Z,3.63
2018-01-25T08:26:05.901Z,3.40
2018-01-25T08:28:33.436Z,3.30
2018-01-25T08:31:00.963Z,2.83
2018-01-25T08:33:29.212Z,3.60
2018-01-25T08:35:56.738Z,3.40
2018-01-25T08:38:24.263Z,2.63
2018-01-25T08:40:51.826Z,3.43
2018-01-25T08:43:20.280Z,3.33
2018-01-25T08:45:47.815Z,2.80
2018-01-25T08:48:17.185Z,2.92
2018-01-25T08:50:44.731Z,2.90
2018-01-25T08:53:12.260Z,3.27
2018-01-25T08:55:40.384Z,3.13
2018-01-25T08:58:07.916Z,3.57
2018-01-25T09:00:35.446Z,3.90
2018-01-25T09:03:03.016Z,4.07
2018-01-25T09:05:30.564Z,5.20
2018-01-25T09:07:58.095Z,4.20
2018-01-25T09:10:25.651Z,4.30
2018-01-25T09:12:53.185Z,3.03
2018-01-25T09:15:20.723Z,3.40
2018-01-25T09:17:48.740Z,3.50
2018-01-25T09:20:16.499Z,3.15
2018-01-25T09:22:44.034Z,3.53
2018-01-25T09:25:11.596Z,4.00
2018-01-25T09:27:39.127Z,5.27
2018-01-25T09:30:06.663Z,5.07
2018-01-25T09:32:34.234Z,4.10
2018-01-25T09:35:01.766Z,5.27
2018-01-25T09:37:29.299Z,4.70
2018-01-25T09:39:57.392Z,3.83
2018-01-25T09:42:24.939Z,3.63
2018-01-25T09:44:52.666Z,6.70
2018-01-25T09:47:20.267Z,5.63
2018-01-25T09:49:47.798Z,5.40
2018-01-25T09:52:15.494Z,4.80
2018-01-25T09:54:43.063Z,4.30
2018-01-25T09:57:10.595Z,5.97
2018-01-25T09:59:38.175Z,5.60
2018-01-25T10:02:06.199Z,5.20
2018-01-25T10:04:33.735Z,3.60
2018-01-25T10:07:01.308Z,3.07
2018-01-25T10:09:29.664Z,3.00
2018-01-25T10:11:57.223Z,3.53
2018-01-25T10:14:24.774Z,2.60
2018-01-25T10:16:52.335Z,3.77
2018-01-25T10:19:19.875Z,3.17
2018-01-25T10:21:47.407Z,2.60
2018-01-25T10:24:18.268Z,2.37
2018-01-25T10:26:45.900Z,2.50
2018-01-25T10:29:27.967Z,3.17
2018-01-25T10:34:35.168Z,3.17
2018-01-25T10:37:02.699Z,2.67
2018-01-25T10:39:30.227Z,3.23
2018-01-25T10:41:58.075Z,2.60
2018-01-25T10:44:25.619Z,2.67
2018-01-25T10:46:53.867Z,2.60
2018-01-25T10:49:21.435Z,2.73
2018-01-25T10:51:49.043Z,3.00
2018-01-25T10:54:16.574Z,2.30
2018-01-25T10:56:44.135Z,2.70
2018-01-25T10:59:11.671Z,2.57
2018-01-25T11:01:44.755Z,2.90
2018-01-25T11:04:12.638Z,3.20
2018-01-25T11:06:40.168Z,2.93
2018-01-25T11:09:07.724Z,2.93
2018-01-25T11:11:35.385Z,3.27
2018-01-25T11:14:02.957Z,2.80
2018-01-25T11:16:30.501Z,2.70
2018-01-25T11:18:58.064Z,2.33
2018-01-25T11:21:25.600Z,2.42
2018-01-25T11:23:53.434Z,2.83
2018-01-25T11:26:21.300Z,2.42
2018-01-25T11:28:48.832Z,2.70
2018-01-25T11:31:16.531Z,2.97
2018-01-25T11:33:44.100Z,2.77
2018-01-25T11:36:12.506Z,2.60
2018-01-25T11:38:40.056Z,2.43
2018-01-25T11:41:07.615Z,4.40
2018-01-25T11:43:35.196Z,2.87
2018-01-25T11:46:02.755Z,2.33
2018-01-25T11:48:30.803Z,2.27
2018-01-25T11:50:59.110Z,2.73
2018-01-25T11:53:26.647Z,2.47
2018-01-25T11:55:54.199Z,3.50
2018-01-25T11:58:22.503Z,4.40
2018-01-25T12:00:50.035Z,3.30
2018-01-25T12:03:17.599Z,3.10
2018-01-25T12:05:45.139Z,2.77
2018-01-25T12:08:14.359Z,2.67
2018-01-25T12:10:42.415Z,2.30
2018-01-25T12:13:09.939Z,2.80
2018-01-25T12:15:37.522Z,4.22
2018-01-25T12:18:05.084Z,3.17
2018-01-25T12:20:32.794Z,3.90
2018-01-25T12:23:00.327Z,2.97
2018-01-25T12:25:28.663Z,3.23
2018-01-25T12:27:56.191Z,2.43
2018-01-25T12:30:23.724Z,3.27
2018-01-25T12:32:52.563Z,4.10
2018-01-25T12:35:20.102Z,3.20
2018-01-25T12:37:47.643Z,7.05
2018-01-25T12:40:18.379Z,4.30
2018-01-25T12:42:45.948Z,4.47
2018-01-25T12:45:24.372Z,3.75
2018-01-25T12:51:07.751Z,2.60
2018-01-25T12:53:35.296Z,2.40
2018-01-25T12:56:02.827Z,2.60
2018-01-25T12:58:30.426Z,2.80
2018-01-25T13:00:57.958Z,2.90
2018-01-25T13:03:26.455Z,2.53
2018-01-25T13:05:54.029Z,2.50
2018-01-25T13:08:21.580Z,2.88
2018-01-25T13:10:49.119Z,2.87
2018-01-25T13:13:17.597Z,3.23
2018-01-25T13:15:45.192Z,2.67
2018-01-25T13:18:13.688Z,2.80
2018-01-25T13:20:41.271Z,3.23
2018-01-25T13:23:09.639Z,2.30
2018-01-25T13:25:37.972Z,2.20
2018-01-25T13:28:05.550Z,2.73
2018-01-25T13:30:33.135Z,2.47
2018-01-25T13:33:06.603Z,2.80
2018-01-25T13:35:34.224Z,2.87
2018-01-25T13:38:02.094Z,3.13
2018-01-25T13:40:29.703Z,3.17
2018-01-25T13:42:57.236Z,2.57
2018-01-25T13:45:24.799Z,2.60
2018-01-25T13:47:53.542Z,3.57
2018-01-25T13:50:21.900Z,3.07
2018-01-25T13:52:50.236Z,4.07
2018-01-25T13:55:18.412Z,3.10
2018-01-25T13:57:45.997Z,3.73
2018-01-25T14:00:25.708Z,4.72
2018-01-25T14:07:12.694Z,5.47
2018-01-25T14:09:41.328Z,5.00
2018-01-25T14:12:09.110Z,3.70
2018-01-25T14:14:38.244Z,3.50
2018-01-25T14:17:05.845Z,3.67
2018-01-25T14:19:33.391Z,3.50
2018-01-25T14:22:01.026Z,4.00
2018-01-25T14:24:28.563Z,5.27
2018-01-25T14:26:56.095Z,3.80
2018-01-25T14:29:23.683Z,4.70
2018-01-25T14:31:51.601Z,5.23
2018-01-25T14:34:19.199Z,5.40
2018-01-25T14:36:46.978Z,4.97
2018-01-25T14:39:16.323Z,5.55
2018-01-25T14:41:43.925Z,4.30
2018-01-25T14:44:12.483Z,4.40
2018-01-25T14:46:40.179Z,4.43
2018-01-25T14:49:07.800Z,4.77
2018-01-25T14:51:36.187Z,4.53
2018-01-25T14:54:04.223Z,5.30
2018-01-25T14:56:31.794Z,5.40
2018-01-25T14:58:59.418Z,4.67
2018-01-25T15:01:26.984Z,4.90
2018-01-25T15:03:54.563Z,4.80
2018-01-25T15:06:22.232Z,5.10
2018-01-25T15:08:49.872Z,6.40
2018-01-25T15:11:17.520Z,6.90
2018-01-25T15:13:45.109Z,6.43
2018-01-25T15:16:12.752Z,5.62
2018-01-25T15:18:40.336Z,7.43
2018-01-25T15:21:07.973Z,6.03
2018-01-25T15:23:35.772Z,5.97
2018-01-25T15:26:06.148Z,5.70
2018-01-25T15:28:33.791Z,6.13
2018-01-25T15:31:01.397Z,6.10
2018-01-25T15:33:28.970Z,5.70
2018-01-25T15:35:56.557Z,6.70
2018-01-25T15:38:24.875Z,7.70
2018-01-25T15:40:52.557Z,8.03
2018-01-25T15:43:20.179Z,7.65
2018-01-25T15:45:47.756Z,6.23
2018-01-25T15:48:16.468Z,13.13
2018-01-25T15:50:44.088Z,8.37
2018-01-25T15:53:11.632Z,6.10
2018-01-25T15:55:40.227Z,6.30
2018-01-25T15:58:07.816Z,6.50
2018-01-25T16:00:35.513Z,7.20
2018-01-25T16:03:03.056Z,6.20
2018-01-25T16:05:30.764Z,5.78
2018-01-25T16:07:59.123Z,6.43
2018-01-25T16:10:26.884Z,7.13
2018-01-25T16:12:54.493Z,6.00
2018-01-25T16:15:22.100Z,8.00
2018-01-25T16:17:50.050Z,6.35
2018-01-25T16:20:17.696Z,7.70
2018-01-25T16:22:45.301Z,6.60
2018-01-25T16:25:13.855Z,9.70
2018-01-25T16:27:41.831Z,12.87
2018-01-25T16:30:09.396Z,12.20
2018-01-25T16:32:39.844Z,13.10
2018-01-25T16:35:08.221Z,10.70
2018-01-25T16:37:36.552Z,10.63
2018-01-25T16:40:04.102Z,9.40
2018-01-25T16:42:31.675Z,11.27
2018-01-25T16:44:59.215Z,11.87
2018-01-25T16:47:26.755Z,10.80
2018-01-25T16:49:56.936Z,17.50
2018-01-25T16:52:24.475Z,14.38
2018-01-25T16:54:52.244Z,13.73
2018-01-25T16:57:24.214Z,14.93
2018-01-25T16:59:51.759Z,17.43
2018-01-25T17:02:19.313Z,16.50
2018-01-25T17:04:46.939Z,19.70
2018-01-25T17:07:15.487Z,28.90
2018-01-25T17:09:43.024Z,23.43
2018-01-25T17:12:11.675Z,26.93
2018-01-25T17:14:39.974Z,26.10
2018-01-25T17:17:07.520Z,25.50
2018-01-25T17:19:35.087Z,12.25
2018-01-25T17:22:03.455Z,13.10
2018-01-25T17:24:31.776Z,13.10
2018-01-25T17:27:00.176Z,11.00
2018-01-25T17:29:27.843Z,10.13
2018-01-25T17:31:55.436Z,10.97
2018-01-25T17:34:24.075Z,11.00
2018-01-25T17:36:51.663Z,10.40
2018-01-25T17:39:20.035Z,10.07
2018-01-25T17:41:47.603Z,11.70
2018-01-25T17:44:16.515Z,10.90
2018-01-25T17:46:44.877Z,11.23
2018-01-25T17:49:12.511Z,12.52
2018-01-25T17:51:40.048Z,9.70
2018-01-25T17:54:07.773Z,8.27
2018-01-25T17:56:35.468Z,7.60
2018-01-25T17:59:04.511Z,8.20
2018-01-25T18:01:32.188Z,7.95
2018-01-25T18:04:00.574Z,8.37
2018-01-25T18:06:28.147Z,8.77
2018-01-25T18:08:55.711Z,8.57
2018-01-25T18:11:23.302Z,9.27
2018-01-25T18:13:50.915Z,8.00
2018-01-25T18:16:18.521Z,8.63
2018-01-25T18:18:46.647Z,8.63
2018-01-25T18:21:25.317Z,8.02
2018-01-25T18:30:02.986Z,7.60
2018-01-25T18:32:30.787Z,9.30
2018-01-25T18:34:58.323Z,10.13
2018-01-25T18:37:26.791Z,8.87
2018-01-25T18:39:54.319Z,10.67
2018-01-25T18:42:21.906Z,10.30
2018-01-25T18:44:49.574Z,19.85
2018-01-25T18:47:17.159Z,21.10
2018-01-25T18:49:45.511Z,12.93
2018-01-25T18:52:24.545Z,15.38
2018-01-25T18:59:47.418Z,12.50
2018-01-25T19:02:26.337Z,12.10
2018-01-25T19:15:33.967Z,23.57
2018-01-25T19:18:01.606Z,14.60
2018-01-25T19:20:30.117Z,15.00
2018-01-25T19:22:57.782Z,17.60
2018-01-25T19:25:25.356Z,17.90
2018-01-25T19:27:52.944Z,21.37
2018-01-25T19:30:20.503Z,20.70
2018-01-25T19:32:48.179Z,22.20
2018-01-25T19:35:16.519Z,24.52
2018-01-25T19:37:44.165Z,25.07
2018-01-25T19:40:11.759Z,24.80
2018-01-25T19:42:39.425Z,36.37
2018-01-25T19:45:06.984Z,35.97
2018-01-25T19:47:34.524Z,46.57
2018-01-25T19:50:02.098Z,35.10
2018-01-25T19:52:29.763Z,35.40
2018-01-25T19:54:57.346Z,32.50
2018-01-25T19:57:24.930Z,28.83
2018-01-25T19:59:52.986Z,21.87
2018-01-25T20:02:21.339Z,16.62
2018-01-25T20:04:48.922Z,17.47
2018-01-25T20:07:16.537Z,18.25
2018-01-25T20:09:44.067Z,18.30
2018-01-25T20:12:13.510Z,18.90
2018-01-25T20:14:41.123Z,17.57
2018-01-25T20:17:09.431Z,17.60
2018-01-25T20:19:37.014Z,18.63
2018-01-25T20:22:04.648Z,19.10
2018-01-25T20:24:32.233Z,18.03
2018-01-25T20:26:59.818Z,20.23
2018-01-25T20:29:27.455Z,19.13
2018-01-25T20:31:55.071Z,17.60
2018-01-25T20:34:22.608Z,16.90
2018-01-25T20:36:50.167Z,15.87
2018-01-25T20:39:17.844Z,15.83
2018-01-25T20:41:46.462Z,16.80
2018-01-25T20:44:18.223Z,14.27
2018-01-25T20:46:45.806Z,12.50
2018-01-25T20:49:14.610Z,12.30
2018-01-25T20:51:42.218Z,16.30
2018-01-25T20:54:09.759Z,15.97
2018-01-25T20:56:38.102Z,16.43
2018-01-25T20:59:05.727Z,17.40
2018-01-25T21:01:34.118Z,15.18
2018-01-25T21:04:01.743Z,14.80
2018-01-25T21:06:30.576Z,14.55
2018-01-25T21:08:58.105Z,16.23
2018-01-25T21:11:25.707Z,16.23
2018-01-25T21:13:54.256Z,16.23
2018-01-25T21:16:22.650Z,16.47
2018-01-25T21:18:50.193Z,14.87
2018-01-25T21:21:17.798Z,14.67
2018-01-25T21:23:45.414Z,12.93
2018-01-25T21:26:24.621Z,13.45
2018-01-25T21:31:32.227Z,13.90
2018-01-25T21:34:00.603Z,11.70
2018-01-25T21:36:28.956Z,11.50
2018-01-25T21:38:56.538Z,13.77
2018-01-25T21:41:24.123Z,12.80
2018-01-25T21:43:51.667Z,13.87
2018-01-25T21:46:20.401Z,13.40
2018-01-25T21:48:47.994Z,13.87
2018-01-25T21:51:16.738Z,11.38
2018-01-25T21:53:49.012Z,11.50
2018-01-25T21:56:17.788Z,11.23
2018-01-25T21:58:45.375Z,10.13
2018-01-25T22:01:14.622Z,11.27
2018-01-25T22:03:42.661Z,11.90
2018-01-25T22:06:10.346Z,11.03
2018-01-25T22:08:37.941Z,9.37
2018-01-25T22:11:05.701Z,11.20
2018-01-25T22:13:33.324Z,9.50
2018-01-25T22:16:00.931Z,9.87
2018-01-25T22:18:28.505Z,10.07
2018-01-25T22:20:56.035Z,9.73
2018-01-25T22:23:23.680Z,9.30
2018-01-25T22:25:51.277Z,10.10
2018-01-25T22:28:18.807Z,8.73
2018-01-25T22:30:47.201Z,9.53
2018-01-25T22:33:16.499Z,9.27
2018-01-25T22:35:44.790Z,9.17
2018-01-25T22:38:12.358Z,8.70
2018-01-25T22:40:39.890Z,9.40
2018-01-25T22:43:07.419Z,10.00
2018-01-25T22:45:34.972Z,8.83
2018-01-25T22:48:02.499Z,8.88
2018-01-25T22:50:30.022Z,8.63
2018-01-25T22:52:58.254Z,8.80
2018-01-25T22:55:25.835Z,8.55
2018-01-25T22:57:53.367Z,9.35
2018-01-25T23:00:32.748Z,8.63
2018-01-25T23:03:00.280Z,8.67
2018-01-25T23:05:28.559Z,9.20
2018-01-25T23:07:56.111Z,8.43
2018-01-25T23:10:23.641Z,9.37
2018-01-25T23:12:51.213Z,9.20
2018-01-25T23:15:19.199Z,9.25
2018-01-25T23:17:46.778Z,8.80
2018-01-25T23:20:15.736Z,9.52
2018-01-25T23:22:43.299Z,10.03
2018-01-25T23:25:10.826Z,8.73
2018-01-25T23:27:38.362Z,8.50
2018-01-25T23:30:05.965Z,8.00
2018-01-25T23:32:33.535Z,9.02
2018-01-25T23:35:01.059Z,8.40
2018-01-25T23:37:29.705Z,9.17
2018-01-25T23:39:57.243Z,8.50
2018-01-25T23:42:24.771Z,9.73
2018-01-25T23:44:52.339Z,9.20
2018-01-25T23:47:19.866Z,8.98
2018-01-25T23:49:47.395Z,9.70
2018-01-25T23:52:16.450Z,9.32
2018-01-25T23:54:43.984Z,9.40
2018-01-25T23:57:11.521Z,8.30
2018-01-25T23:59:39.585Z,8.97
